createdAt,value
2019-01-09T00:01:38.919Z,38.30
2019-01-09T00:04:09.252Z,45.23
2019-01-09T00:06:39.633Z,35.73
2019-01-09T00:09:13.163Z,42.00
2019-01-09T00:11:43.516Z,38.48
2019-01-09T00:14:13.848Z,43.90
2019-01-09T00:16:44.199Z,41.65
2019-01-09T00:19:14.586Z,44.30
2019-01-09T00:21:45.014Z,45.20
2019-01-09T00:24:15.420Z,38.98
2019-01-09T00:26:45.759Z,39.67
2019-01-09T00:29:16.332Z,37.63
2019-01-09T00:31:46.815Z,42.38
2019-01-09T00:34:17.264Z,37.10
2019-01-09T00:36:47.736Z,37.33
2019-01-09T00:39:18.152Z,34.77
2019-01-09T00:41:48.532Z,36.40
2019-01-09T00:44:18.915Z,36.87
2019-01-09T00:46:49.432Z,37.05
2019-01-09T00:49:19.779Z,34.03
2019-01-09T00:51:50.270Z,34.33
2019-01-09T00:54:20.613Z,34.07
2019-01-09T00:56:51.009Z,37.40
2019-01-09T00:59:21.584Z,38.97
2019-01-09T01:02:12.995Z,42.60
2019-01-09T01:05:18.499Z,39.98
2019-01-09T01:08:24.396Z,42.83
2019-01-09T01:11:19.229Z,43.65
2019-01-09T01:14:44.210Z,41.83
2019-01-09T01:17:50.814Z,48.83
2019-01-09T01:20:39.872Z,39.70
2019-01-09T01:23:34.685Z,41.08
2019-01-09T01:26:54.401Z,40.08
2019-01-09T01:30:13.221Z,38.38
2019-01-09T01:33:27.510Z,39.78
2019-01-09T01:36:26.981Z,42.05
2019-01-09T01:39:39.159Z,44.15
2019-01-09T01:42:59.228Z,47.33
2019-01-09T01:46:16.467Z,44.98
2019-01-09T01:49:13.486Z,46.03
2019-01-09T01:52:24.328Z,49.25
2019-01-09T01:55:47.473Z,45.30
2019-01-09T01:58:48.080Z,48.75
2019-01-09T02:01:50.861Z,43.98
2019-01-09T02:05:03.291Z,46.35
2019-01-09T02:08:00.210Z,48.15
2019-01-09T02:11:26.299Z,43.35
2019-01-09T02:14:38.624Z,43.98
2019-01-09T02:18:13.569Z,41.77
2019-01-09T02:21:16.728Z,40.67
2019-01-09T02:24:36.525Z,42.57
2019-01-09T02:27:40.372Z,42.03
2019-01-09T02:30:50.060Z,44.83
2019-01-09T02:33:20.467Z,39.07
2019-01-09T02:35:50.864Z,40.90
2019-01-09T02:38:21.239Z,43.33
2019-01-09T02:40:52.085Z,40.77
2019-01-09T02:43:22.432Z,45.15
2019-01-09T02:45:52.821Z,46.37
2019-01-09T02:48:23.178Z,45.73
2019-01-09T02:50:53.480Z,46.30
2019-01-09T02:53:23.847Z,46.03
2019-01-09T02:55:54.198Z,48.98
2019-01-09T02:58:24.536Z,50.67
2019-01-09T03:00:54.923Z,49.50
2019-01-09T03:03:25.283Z,50.17
2019-01-09T03:05:55.638Z,49.90
2019-01-09T03:08:26.082Z,50.90
2019-01-09T03:10:56.440Z,51.48
2019-01-09T03:13:26.772Z,53.50
2019-01-09T03:15:58.101Z,55.17
2019-01-09T03:18:28.458Z,58.77
2019-01-09T03:20:58.791Z,53.07
2019-01-09T03:23:29.130Z,57.93
2019-01-09T03:25:59.473Z,53.40
2019-01-09T03:28:29.803Z,59.03
2019-01-09T03:31:00.310Z,54.70
2019-01-09T03:33:30.687Z,55.53
2019-01-09T03:36:01.066Z,55.13
2019-01-09T03:38:31.476Z,56.50
2019-01-09T03:41:01.886Z,61.73
2019-01-09T03:43:32.262Z,66.33
2019-01-09T03:46:02.639Z,55.43
2019-01-09T03:48:33.040Z,64.87
2019-01-09T03:51:03.429Z,63.17
2019-01-09T03:53:33.779Z,60.13
2019-01-09T03:56:04.092Z,64.00
2019-01-09T03:58:34.466Z,58.40
2019-01-09T04:01:04.816Z,64.30
2019-01-09T04:03:35.139Z,63.80
2019-01-09T04:06:05.515Z,56.17
2019-01-09T04:08:35.938Z,60.33
2019-01-09T04:11:06.270Z,55.43
2019-01-09T04:13:36.627Z,62.97
2019-01-09T04:16:06.926Z,56.83
2019-01-09T04:18:37.224Z,56.53
2019-01-09T04:21:07.565Z,61.13
2019-01-09T04:23:37.893Z,59.20
2019-01-09T04:26:08.271Z,54.33
2019-01-09T04:28:38.886Z,58.67
2019-01-09T04:31:09.319Z,62.83
2019-01-09T04:33:39.641Z,62.60
2019-01-09T04:36:10.066Z,62.10
2019-01-09T04:38:40.424Z,63.97
2019-01-09T04:41:10.850Z,60.53
2019-01-09T04:43:41.212Z,63.00
2019-01-09T04:46:11.622Z,59.50
2019-01-09T04:48:41.962Z,53.60
2019-01-09T04:51:12.286Z,60.33
2019-01-09T04:53:43.900Z,57.20
2019-01-09T04:56:14.272Z,58.40
2019-01-09T04:58:44.573Z,65.40
2019-01-09T05:01:14.917Z,56.03
2019-01-09T05:03:45.249Z,63.70
2019-01-09T05:06:15.580Z,63.13
2019-01-09T05:08:45.925Z,74.30
2019-01-09T05:11:16.303Z,76.13
2019-01-09T05:13:46.673Z,67.70
2019-01-09T05:16:17.097Z,65.23
2019-01-09T05:18:47.462Z,63.97
2019-01-09T05:21:17.846Z,61.27
2019-01-09T05:23:48.206Z,63.93
2019-01-09T05:26:18.620Z,58.17
2019-01-09T05:28:48.983Z,59.70
2019-01-09T05:31:19.337Z,57.63
2019-01-09T05:33:49.666Z,55.37
2019-01-09T05:36:19.967Z,53.30
2019-01-09T05:38:50.321Z,52.37
2019-01-09T05:41:20.713Z,56.73
2019-01-09T05:43:51.050Z,53.13
2019-01-09T05:46:21.437Z,56.70
2019-01-09T05:48:53.488Z,63.53
2019-01-09T05:51:24.107Z,56.70
2019-01-09T05:53:54.444Z,56.47
2019-01-09T05:56:35.569Z,65.37
2019-01-09T05:59:23.022Z,58.03
2019-01-09T06:01:58.961Z,58.13
2019-01-09T06:04:29.303Z,63.03
2019-01-09T06:07:03.532Z,75.97
2019-01-09T06:09:33.890Z,65.73
2019-01-09T06:12:04.506Z,59.43
2019-01-09T06:14:50.351Z,60.13
2019-01-09T06:17:31.807Z,67.07
2019-01-09T06:20:48.833Z,56.83
2019-01-09T06:23:56.840Z,50.00
2019-01-09T06:26:31.004Z,57.50
2019-01-09T06:29:23.176Z,69.30
2019-01-09T06:32:04.745Z,61.67
2019-01-09T06:34:38.536Z,48.77
2019-01-09T06:37:09.221Z,39.73
2019-01-09T06:40:06.139Z,48.40
2019-01-09T06:42:36.225Z,45.87
2019-01-09T06:45:07.003Z,45.23
2019-01-09T06:47:37.347Z,44.50
2019-01-09T06:50:11.727Z,44.70
2019-01-09T06:52:42.103Z,44.10
2019-01-09T06:55:16.543Z,45.20
2019-01-09T06:57:47.009Z,43.03
2019-01-09T07:00:20.830Z,47.90
2019-01-09T07:02:51.255Z,44.37
2019-01-09T07:05:21.640Z,48.00
2019-01-09T07:07:52.023Z,48.10
2019-01-09T07:10:22.367Z,75.37
2019-01-09T07:12:52.764Z,58.43
2019-01-09T07:15:23.166Z,46.37
2019-01-09T07:17:53.657Z,50.63
2019-01-09T07:20:24.439Z,45.67
2019-01-09T07:22:54.853Z,46.30
2019-01-09T07:25:25.269Z,39.30
2019-01-09T07:27:55.638Z,46.10
2019-01-09T07:30:26.039Z,38.33
2019-01-09T07:32:56.395Z,35.97
2019-01-09T07:35:26.918Z,49.87
2019-01-09T07:37:57.835Z,38.53
2019-01-09T07:40:28.207Z,41.87
2019-01-09T07:42:58.578Z,55.17
2019-01-09T07:45:28.971Z,37.00
2019-01-09T07:47:59.284Z,37.67
2019-01-09T07:50:29.691Z,47.87
2019-01-09T07:53:00.202Z,37.40
2019-01-09T07:55:30.790Z,42.10
2019-01-09T07:58:01.133Z,41.77
2019-01-09T08:00:31.523Z,41.60
2019-01-09T08:03:01.905Z,39.33
2019-01-09T08:05:32.270Z,37.43
2019-01-09T08:08:02.710Z,34.23
2019-01-09T08:10:33.094Z,44.53
2019-01-09T08:13:03.477Z,44.67
2019-01-09T08:15:33.933Z,42.37
2019-01-09T08:18:04.303Z,42.23
2019-01-09T08:20:34.602Z,35.50
2019-01-09T08:23:04.990Z,37.40
2019-01-09T08:25:35.514Z,34.93
2019-01-09T08:28:05.914Z,34.17
2019-01-09T08:30:36.295Z,37.83
2019-01-09T08:33:06.686Z,36.50
2019-01-09T08:35:37.058Z,38.70
2019-01-09T08:38:07.479Z,37.43
2019-01-09T08:40:38.044Z,36.73
2019-01-09T08:43:08.484Z,40.83
2019-01-09T08:45:38.884Z,38.43
2019-01-09T08:48:09.322Z,39.07
2019-01-09T08:50:40.050Z,40.83
2019-01-09T08:53:10.477Z,41.80
2019-01-09T08:55:41.229Z,41.40
2019-01-09T08:58:11.578Z,41.17
2019-01-09T09:00:42.135Z,39.60
2019-01-09T09:03:12.537Z,35.70
2019-01-09T09:05:42.907Z,37.57
2019-01-09T09:08:14.119Z,36.93
2019-01-09T09:10:44.467Z,36.77
2019-01-09T09:13:44.142Z,34.27
2019-01-09T09:16:14.523Z,33.80
2019-01-09T09:18:44.950Z,32.90
2019-01-09T09:21:17.888Z,39.37
2019-01-09T09:23:49.543Z,33.43
2019-01-09T09:26:27.423Z,35.10
2019-01-09T09:29:00.304Z,35.20
2019-01-09T09:31:32.157Z,34.00
2019-01-09T09:34:06.508Z,35.50
2019-01-09T09:36:37.910Z,34.37
2019-01-09T09:39:12.914Z,29.43
2019-01-09T09:41:44.393Z,31.17
2019-01-09T09:44:16.617Z,32.97
2019-01-09T09:46:47.995Z,30.77
2019-01-09T09:49:20.726Z,30.90
2019-01-09T09:51:51.740Z,24.87
2019-01-09T09:54:23.487Z,32.07
2019-01-09T09:56:53.927Z,29.13
2019-01-09T09:59:24.293Z,32.40
2019-01-09T10:01:54.891Z,34.17
2019-01-09T10:04:25.384Z,35.03
2019-01-09T10:06:55.818Z,31.13
2019-01-09T10:09:26.255Z,35.50
2019-01-09T10:11:56.727Z,32.20
2019-01-09T10:14:27.131Z,29.13
2019-01-09T10:16:57.616Z,31.47
2019-01-09T10:19:28.017Z,28.97
2019-01-09T10:21:58.384Z,32.90
2019-01-09T10:24:28.796Z,29.20
2019-01-09T10:26:59.182Z,27.90
2019-01-09T10:29:29.617Z,28.20
2019-01-09T10:32:00.081Z,28.70
2019-01-09T10:34:30.918Z,29.33
2019-01-09T10:37:01.312Z,28.57
2019-01-09T10:39:31.640Z,30.33
2019-01-09T10:42:02.143Z,28.57
2019-01-09T10:44:34.568Z,28.10
2019-01-09T10:47:04.812Z,28.57
2019-01-09T10:49:35.200Z,31.93
2019-01-09T10:52:05.727Z,31.83
2019-01-09T10:54:36.131Z,46.37
2019-01-09T10:57:06.675Z,28.77
2019-01-09T10:59:37.042Z,32.07
2019-01-09T11:02:07.403Z,30.07
2019-01-09T11:04:37.712Z,29.70
2019-01-09T11:07:08.558Z,31.07
2019-01-09T11:09:38.896Z,32.00
2019-01-09T11:12:09.387Z,29.43
2019-01-09T11:14:39.793Z,26.10
2019-01-09T11:17:10.253Z,27.73
2019-01-09T11:19:40.612Z,30.00
2019-01-09T11:22:10.994Z,28.43
2019-01-09T11:24:41.566Z,32.50
2019-01-09T11:27:11.997Z,34.43
2019-01-09T11:29:42.427Z,26.00
2019-01-09T11:32:12.819Z,28.13
2019-01-09T11:34:43.219Z,25.67
2019-01-09T11:37:13.621Z,29.93
2019-01-09T11:39:43.977Z,28.97
2019-01-09T11:42:14.356Z,27.53
2019-01-09T11:44:44.767Z,26.47
2019-01-09T11:47:15.173Z,26.83
2019-01-09T11:49:46.632Z,28.37
2019-01-09T11:52:17.067Z,26.17
2019-01-09T11:54:47.479Z,23.83
2019-01-09T11:57:17.875Z,25.20
2019-01-09T11:59:48.245Z,24.60
2019-01-09T12:02:22.224Z,25.43
2019-01-09T12:04:50.788Z,24.40
2019-01-09T12:07:21.138Z,24.33
2019-01-09T12:09:51.482Z,27.37
2019-01-09T12:12:21.868Z,24.10
2019-01-09T12:14:52.218Z,23.77
2019-01-09T12:17:22.566Z,24.50
2019-01-09T12:19:53.172Z,16.80
2019-01-09T12:22:23.740Z,17.43
2019-01-09T12:24:54.216Z,18.20
2019-01-09T12:27:24.582Z,18.00
2019-01-09T12:29:54.934Z,19.00
2019-01-09T12:32:25.405Z,20.90
2019-01-09T12:34:55.818Z,17.60
2019-01-09T12:37:26.303Z,16.23
2019-01-09T12:39:56.726Z,16.03
2019-01-09T12:42:30.463Z,14.23
2019-01-09T12:45:06.779Z,20.50
2019-01-09T12:47:37.087Z,13.33
2019-01-09T12:50:09.109Z,14.53
2019-01-09T12:52:39.637Z,17.57
2019-01-09T12:55:10.305Z,15.00
2019-01-09T12:57:40.706Z,16.33
2019-01-09T13:00:22.826Z,13.90
2019-01-09T13:02:53.241Z,17.80
2019-01-09T13:05:23.816Z,16.80
2019-01-09T13:07:54.241Z,20.20
2019-01-09T13:10:24.710Z,19.43
2019-01-09T13:12:55.098Z,20.53
2019-01-09T13:15:25.449Z,20.10
2019-01-09T13:17:55.953Z,20.07
2019-01-09T13:20:26.352Z,22.00
2019-01-09T13:22:56.777Z,20.40
2019-01-09T13:25:27.292Z,53.83
2019-01-09T13:27:57.685Z,35.87
2019-01-09T13:30:28.124Z,22.43
2019-01-09T13:32:58.460Z,22.97
2019-01-09T13:35:28.844Z,23.63
2019-01-09T13:37:59.215Z,20.43
2019-01-09T13:40:29.649Z,24.37
2019-01-09T13:42:59.991Z,23.23
2019-01-09T13:45:30.358Z,28.97
2019-01-09T13:48:00.784Z,25.57
2019-01-09T13:50:31.166Z,24.87
2019-01-09T13:53:01.562Z,25.97
2019-01-09T13:55:31.943Z,25.37
2019-01-09T13:58:02.357Z,26.50
2019-01-09T14:00:32.864Z,27.10
2019-01-09T14:03:03.284Z,31.83
2019-01-09T14:05:33.629Z,27.53
2019-01-09T14:08:04.421Z,26.63
2019-01-09T14:10:34.900Z,25.17
2019-01-09T14:13:05.354Z,22.73
2019-01-09T14:15:35.718Z,23.30
2019-01-09T14:18:06.166Z,20.73
2019-01-09T14:20:36.465Z,18.83
2019-01-09T14:23:07.089Z,19.97
2019-01-09T14:25:37.496Z,22.13
2019-01-09T14:28:07.881Z,18.47
2019-01-09T14:30:38.529Z,17.77
2019-01-09T14:33:08.967Z,16.17
2019-01-09T14:35:39.401Z,18.17
2019-01-09T14:38:09.844Z,17.27
2019-01-09T14:40:40.231Z,16.73
2019-01-09T14:43:10.541Z,16.60
2019-01-09T14:45:40.888Z,21.07
2019-01-09T14:48:11.304Z,16.07
2019-01-09T14:50:42.220Z,19.03
2019-01-09T14:53:12.879Z,18.47
2019-01-09T14:55:43.319Z,18.77
2019-01-09T14:58:13.715Z,17.90
2019-01-09T15:00:44.115Z,21.50
2019-01-09T15:03:14.476Z,19.27
2019-01-09T15:05:44.896Z,22.13
2019-01-09T15:08:15.192Z,21.17
2019-01-09T15:10:45.620Z,20.60
2019-01-09T15:13:16.016Z,20.07
2019-01-09T15:15:46.704Z,21.97
2019-01-09T15:18:17.059Z,24.37
2019-01-09T15:20:47.431Z,24.73
2019-01-09T15:23:17.810Z,24.80
2019-01-09T15:25:49.144Z,24.43
2019-01-09T15:28:19.620Z,22.73
2019-01-09T15:30:50.637Z,21.27
2019-01-09T15:33:21.123Z,23.40
2019-01-09T15:35:51.710Z,20.43
2019-01-09T15:38:22.087Z,27.00
2019-01-09T15:40:52.465Z,22.43
2019-01-09T15:43:22.815Z,23.57
2019-01-09T15:45:53.208Z,23.63
2019-01-09T15:48:23.541Z,23.07
2019-01-09T15:50:53.854Z,22.67
2019-01-09T15:53:24.215Z,24.40
2019-01-09T15:55:54.526Z,23.57
2019-01-09T15:58:24.923Z,21.23
2019-01-09T16:00:57.988Z,24.93
2019-01-09T16:03:28.407Z,25.33
2019-01-09T16:05:58.769Z,25.83
2019-01-09T16:08:29.117Z,23.63
2019-01-09T16:10:59.464Z,23.10
2019-01-09T16:13:29.809Z,22.33
2019-01-09T16:16:00.160Z,22.93
2019-01-09T16:18:30.491Z,25.50
2019-01-09T16:21:00.874Z,24.67
2019-01-09T16:23:31.244Z,22.37
2019-01-09T16:26:01.619Z,20.47
2019-01-09T16:28:31.990Z,19.97
2019-01-09T16:31:26.890Z,21.37
2019-01-09T16:33:57.223Z,23.90
2019-01-09T16:36:28.684Z,24.53
2019-01-09T16:38:59.088Z,19.90
2019-01-09T16:41:29.466Z,26.43
2019-01-09T16:43:59.772Z,22.83
2019-01-09T16:46:30.128Z,24.07
2019-01-09T16:49:00.467Z,25.83
2019-01-09T16:51:30.798Z,27.63
2019-01-09T16:54:01.174Z,27.70
2019-01-09T16:56:31.551Z,30.40
2019-01-09T16:59:01.891Z,31.43
2019-01-09T17:01:32.306Z,30.20
2019-01-09T17:04:04.959Z,38.83
2019-01-09T17:06:35.257Z,30.90
2019-01-09T17:09:08.697Z,25.87
2019-01-09T17:11:38.921Z,30.83
2019-01-09T17:14:09.263Z,29.80
2019-01-09T17:16:39.673Z,30.70
2019-01-09T17:19:10.255Z,27.50
2019-01-09T17:21:40.595Z,26.77
2019-01-09T17:24:10.932Z,26.20
2019-01-09T17:26:41.331Z,24.47
2019-01-09T17:29:11.708Z,26.27
2019-01-09T17:31:42.088Z,24.30
2019-01-09T17:34:12.498Z,23.20
2019-01-09T17:36:42.922Z,27.07
2019-01-09T17:39:13.307Z,24.30
2019-01-09T17:41:43.849Z,25.80
2019-01-09T17:44:14.195Z,23.27
2019-01-09T17:46:44.527Z,26.93
2019-01-09T17:49:14.876Z,22.63
2019-01-09T17:51:45.179Z,26.20
2019-01-09T17:54:15.558Z,38.97
2019-01-09T17:56:45.974Z,28.47
2019-01-09T17:59:16.240Z,26.77
2019-01-09T18:01:46.568Z,25.83
2019-01-09T18:04:17.086Z,29.63
2019-01-09T18:06:47.597Z,28.47
2019-01-09T18:09:17.929Z,35.80
2019-01-09T18:11:48.300Z,36.13
2019-01-09T18:14:18.998Z,37.50
2019-01-09T18:16:49.331Z,35.67
2019-01-09T18:19:19.712Z,37.57
2019-01-09T18:21:50.126Z,32.40
2019-01-09T18:24:20.500Z,39.70
2019-01-09T18:26:51.007Z,34.10
2019-01-09T18:29:21.345Z,35.90
2019-01-09T18:31:59.685Z,35.60
2019-01-09T18:34:37.666Z,36.07
2019-01-09T18:37:35.224Z,38.80
2019-01-09T18:41:07.341Z,39.67
2019-01-09T18:43:44.445Z,48.33
2019-01-09T18:46:52.238Z,53.37
2019-01-09T18:50:12.885Z,53.57
2019-01-09T18:52:51.378Z,48.97
2019-01-09T18:55:21.747Z,45.63
2019-01-09T18:57:52.089Z,51.03
2019-01-09T19:00:24.291Z,51.93
2019-01-09T19:02:54.758Z,48.33
2019-01-09T19:05:25.268Z,51.37
2019-01-09T19:07:55.642Z,52.83
2019-01-09T19:10:26.210Z,51.70
2019-01-09T19:12:56.635Z,55.20
2019-01-09T19:15:27.012Z,54.33
2019-01-09T19:17:57.390Z,49.60
2019-01-09T19:20:27.827Z,49.63
2019-01-09T19:22:58.232Z,57.43
2019-01-09T19:25:28.782Z,51.27
2019-01-09T19:27:59.124Z,52.10
2019-01-09T19:30:31.145Z,55.53
2019-01-09T19:33:01.800Z,50.73
2019-01-09T19:35:32.234Z,51.83
2019-01-09T19:38:02.591Z,52.47
2019-01-09T19:40:32.923Z,52.53
2019-01-09T19:43:03.219Z,50.23
2019-01-09T19:45:34.027Z,50.57
2019-01-09T19:48:04.768Z,50.63
2019-01-09T19:50:42.445Z,49.60
2019-01-09T19:53:07.503Z,50.37
2019-01-09T19:55:38.002Z,53.97
2019-01-09T19:58:08.475Z,53.47
2019-01-09T20:00:38.880Z,49.63
2019-01-09T20:03:09.312Z,53.20
2019-01-09T20:05:39.792Z,52.07
2019-01-09T20:08:10.299Z,52.33
2019-01-09T20:10:40.732Z,54.40
2019-01-09T20:13:11.112Z,56.07
2019-01-09T20:15:41.398Z,54.93
2019-01-09T20:18:11.974Z,53.13
2019-01-09T20:20:42.374Z,55.33
2019-01-09T20:23:12.805Z,50.77
2019-01-09T20:25:43.172Z,53.80
2019-01-09T20:28:13.570Z,52.53
2019-01-09T20:30:44.050Z,54.13
2019-01-09T20:33:14.346Z,60.27
2019-01-09T20:35:44.664Z,59.60
2019-01-09T20:38:15.120Z,51.77
2019-01-09T20:40:45.427Z,59.53
2019-01-09T20:43:15.773Z,56.00
2019-01-09T20:45:46.348Z,55.47
2019-01-09T20:48:16.746Z,51.90
2019-01-09T20:50:47.174Z,58.17
2019-01-09T20:53:17.641Z,58.17
2019-01-09T20:55:48.010Z,55.10
2019-01-09T20:58:18.499Z,55.17
2019-01-09T21:00:49.037Z,50.87
2019-01-09T21:03:19.418Z,49.33
2019-01-09T21:05:51.855Z,52.20
2019-01-09T21:08:22.264Z,53.17
2019-01-09T21:10:52.764Z,51.00
2019-01-09T21:13:23.370Z,54.03
2019-01-09T21:15:53.691Z,50.53
2019-01-09T21:18:23.987Z,46.43
2019-01-09T21:20:54.297Z,48.23
2019-01-09T21:23:24.679Z,46.13
2019-01-09T21:25:55.256Z,46.20
2019-01-09T21:28:25.597Z,43.80
2019-01-09T21:30:56.067Z,46.23
2019-01-09T21:33:26.375Z,45.67
2019-01-09T21:35:56.719Z,42.47
2019-01-09T21:38:27.114Z,41.83
2019-01-09T21:40:57.487Z,38.30
2019-01-09T21:43:27.812Z,45.00
2019-01-09T21:45:58.186Z,43.27
2019-01-09T21:48:28.587Z,42.43
2019-01-09T21:50:59.019Z,47.07
2019-01-09T21:53:29.430Z,44.93
2019-01-09T21:55:59.795Z,44.00
2019-01-09T21:58:30.175Z,43.90
2019-01-09T22:01:00.530Z,43.10
2019-01-09T22:03:30.934Z,45.90
2019-01-09T22:06:01.357Z,42.70
2019-01-09T22:08:31.693Z,43.47
2019-01-09T22:11:01.995Z,43.33
2019-01-09T22:13:32.384Z,43.07
2019-01-09T22:16:02.800Z,44.90
2019-01-09T22:18:33.278Z,44.87
2019-01-09T22:21:03.711Z,41.77
2019-01-09T22:23:34.141Z,40.53
2019-01-09T22:26:04.786Z,44.37
2019-01-09T22:28:35.114Z,47.67
2019-01-09T22:31:05.662Z,40.70
2019-01-09T22:33:35.994Z,46.87
2019-01-09T22:36:06.467Z,47.17
2019-01-09T22:38:36.807Z,47.10
2019-01-09T22:41:07.174Z,50.23
2019-01-09T22:43:37.477Z,50.60
2019-01-09T22:46:07.919Z,50.87
2019-01-09T22:48:38.257Z,49.67
2019-01-09T22:51:08.586Z,48.17
2019-01-09T22:53:39.008Z,49.90
2019-01-09T22:56:09.346Z,50.23
2019-01-09T22:58:39.818Z,49.97
2019-01-09T23:01:33.459Z,50.70
2019-01-09T23:04:06.364Z,49.47
2019-01-09T23:06:57.798Z,51.23
2019-01-09T23:09:48.266Z,51.53
2019-01-09T23:12:21.378Z,50.37
2019-01-09T23:14:51.396Z,51.57
2019-01-09T23:17:21.635Z,46.57
2019-01-09T23:19:51.908Z,47.13
2019-01-09T23:22:22.180Z,45.87
2019-01-09T23:24:52.750Z,43.40
2019-01-09T23:27:22.972Z,45.03
2019-01-09T23:29:53.241Z,46.30
2019-01-09T23:32:23.471Z,46.73
2019-01-09T23:34:53.736Z,44.03
2019-01-09T23:37:23.975Z,43.23
2019-01-09T23:39:54.345Z,44.47
2019-01-09T23:42:30.269Z,48.53
2019-01-09T23:44:56.547Z,50.10
2019-01-09T23:47:26.774Z,50.77
2019-01-09T23:49:57.046Z,47.60
2019-01-09T23:52:27.270Z,46.67
2019-01-09T23:54:57.544Z,43.77
2019-01-09T23:57:27.775Z,46.03
2019-01-09T23:59:58.015Z,45.70
